Time;durP1;ratioP1;P1;durP2;ratioP2;P2;SDS_P1;SDS_P2;PMS_P1;PMS_P2;Temp;Humidity;BMP_temperature;BMP_pressure;BME280_temperature;BME280_humidity;BME280_pressure;Samples;Min_cycle;Max_cycle;Signal;HPM_P1;HPM_P2
2023/01/03 05:52:07;;;;;;;;;8.00;8.00;;;;;6.38;100.00;102434.94;5088810;27;1378663;-77
2023/01/03 05:54:32;;;;;;;;;12.00;10.75;;;;;6.53;100.00;102470.72;5121089;27;49771;-80
2023/01/03 05:56:57;;;;;;;;;8.00;6.25;;;;;6.75;100.00;102459.94;5109384;27;50081;-78
2023/01/03 05:59:23;;;;;;;;;12.00;10.75;;;;;6.36;100.00;102379.13;5122345;27;52067;-80
2023/01/03 06:01:49;;;;;;;;;5.75;5.75;;;;;7.64;100.00;102570.88;5100432;27;49946;-78
2023/01/03 06:04:14;;;;;;;;;8.25;7.00;;;;;6.96;100.00;102477.78;5126576;27;49992;-80
2023/01/03 06:06:39;;;;;;;;;7.00;7.00;;;;;6.98;100.00;102456.16;5102670;27;50149;-78
2023/01/03 06:09:05;;;;;;;;;9.75;8.75;;;;;7.95;100.00;102610.25;5113018;27;51094;-76
2023/01/03 06:11:30;;;;;;;;;6.25;6.25;;;;;7.44;100.00;102519.09;5125709;27;49792;-77
2023/01/03 06:13:56;;;;;;;;;10.25;10.25;;;;;7.90;100.00;102602.91;5108684;27;49693;-76
2023/01/03 06:19:06;;;;;;;;;11.50;7.50;;;;;7.84;100.00;102551.16;5135057;27;49619;-84
2023/01/03 06:21:32;;;;;;;;;6.25;5.75;;;;;8.03;100.00;102580.22;5134472;27;49710;-80
2023/01/03 06:23:57;;;;;;;;;6.25;5.00;;;;;7.83;100.00;102580.75;5135040;27;49518;-78
2023/01/03 06:26:23;;;;;;;;;5.00;5.00;;;;;8.18;100.00;102611.63;5100798;27;50198;-79
2023/01/03 06:28:50;;;;;;;;;8.00;6.25;;;;;8.18;100.00;102597.63;5141100;27;49600;-75
2023/01/03 06:31:16;;;;;;;;;7.75;7.75;;;;;8.38;100.00;102635.47;5134444;27;49399;-76
2023/01/03 06:33:41;;;;;;;;;6.50;4.25;;;;;8.31;100.00;102623.72;5127440;27;50016;-77
2023/01/03 06:36:18;;;;;;;;;7.25;6.00;;;;;8.18;100.00;102611.63;5128143;27;50018;-81
2023/01/03 06:38:43;;;;;;;;;4.50;4.25;;;;;7.31;100.00;102483.44;5127489;27;50023;-72
2023/01/03 06:41:09;;;;;;;;;9.25;9.25;;;;;8.29;100.00;102628.84;5127886;27;49819;-74
2023/01/03 06:43:35;;;;;;;;;13.00;8.00;;;;;7.93;100.00;102563.91;5127919;27;49770;-75
2023/01/03 06:54:32;;;;;;;;;8.50;8.00;;;;;8.34;100.00;102629.13;5114412;27;49965;-75
2023/01/03 06:56:58;;;;;;;;;5.25;4.75;;;;;7.77;100.00;102535.91;5115101;27;50634;-77
2023/01/03 06:59:24;;;;;;;;;7.75;7.25;;;;;7.27;100.00;102473.63;5099526;27;52525;-76
2023/01/03 07:01:51;;;;;;;;;6.25;6.25;;;;;8.39;100.00;102668.69;5107409;27;50091;-75
2023/01/03 07:04:18;;;;;;;;;6.25;5.00;;;;;8.13;100.00;102606.94;5093998;27;49699;-76
2023/01/03 07:06:43;;;;;;;;;9.75;7.00;;;;;7.72;100.00;102535.66;5100416;27;49851;-74
2023/01/03 07:09:10;;;;;;;;;7.25;7.25;;;;;7.51;100.00;102528.19;5093538;27;50871;-77
2023/01/03 07:11:36;;;;;;;;;5.75;5.75;;;;;8.11;100.00;102609.47;5093523;27;49993;-77
2023/01/03 07:14:02;;;;;;;;;7.00;6.50;;;;;7.67;100.00;102546.63;5093577;27;50009;-77
2023/01/03 07:16:43;;;;;;;;;4.25;4.25;;;;;7.64;100.00;102562.13;5093779;27;49664;-75
2023/01/03 07:19:14;;;;;;;;;6.75;5.25;;;;;7.57;100.00;102550.38;5091641;27;51865;-76
2023/01/03 07:21:41;;;;;;;;;3.50;2.75;;;;;8.34;100.00;102663.16;5096329;27;49825;-75
2023/01/03 07:24:09;;;;;;;;;7.50;7.00;;;;;8.02;100.00;102635.06;5093596;27;49743;-77
2023/01/03 07:26:34;;;;;;;;;9.25;7.75;;;;;7.82;100.00;102580.66;5110351;27;49624;-76
2023/01/03 07:29:02;;;;;;;;;7.75;4.75;;;;;7.92;100.00;102593.47;5113008;27;49830;-77
2023/01/03 07:31:28;;;;;;;;;8.00;7.75;;;;;8.00;100.00;102647.13;5112584;27;50007;-75
2023/01/03 07:33:54;;;;;;;;;8.50;7.75;;;;;7.40;100.00;102510.16;5112890;27;49716;-75
2023/01/03 07:36:20;;;;;;;;;7.00;5.50;;;;;8.02;100.00;102614.13;5094792;27;49907;-76
2023/01/03 07:38:46;;;;;;;;;7.00;7.00;;;;;7.18;100.00;102488.75;5113340;27;50071;-77
2023/01/03 07:41:12;;;;;;;;;9.00;6.75;;;;;8.34;100.00;102676.25;5116771;27;50167;-77
2023/01/03 07:43:41;;;;;;;;;8.00;7.00;;;;;8.33;100.00;102680.56;5112936;27;49700;-76
2023/01/03 07:46:17;;;;;;;;;7.50;7.50;;;;;7.84;100.00;102620.84;5113113;27;49996;-77
2023/01/03 07:48:46;;;;;;;;;11.00;7.25;;;;;8.20;100.00;102661.41;5112506;27;49830;-76
2023/01/03 07:51:12;;;;;;;;;7.75;7.75;;;;;7.74;100.00;102582.78;5112220;27;49714;-77
2023/01/03 07:53:39;;;;;;;;;11.00;9.50;;;;;8.14;100.00;102663.69;5112661;27;49919;-77
2023/01/03 07:56:10;;;;;;;;;6.00;6.00;;;;;8.15;100.00;102641.94;5112968;27;49801;-77
2023/01/03 07:58:36;;;;;;;;;7.25;6.00;;;;;8.43;100.00;102681.16;5112616;27;50932;-77
2023/01/03 08:01:06;;;;;;;;;8.75;7.75;;;;;8.62;100.00;102717.19;5112680;27;49910;-77
2023/01/03 08:03:32;;;;;;;;;7.25;5.50;;;;;8.46;100.00;102694.44;5112505;27;49813;-78
2023/01/03 08:06:03;;;;;;;;;11.75;9.25;;;;;8.46;100.00;102677.00;5112790;27;49779;-76
2023/01/03 08:08:28;;;;;;;;;8.00;7.00;;;;;7.85;100.00;102579.13;5102785;27;50030;-77
2023/01/03 08:13:39;;;;;;;;;8.00;7.00;;;;;8.53;100.00;102673.94;5091664;27;49720;-77
2023/01/03 08:16:07;;;;;;;;;10.25;7.75;;;;;8.88;100.00;102714.41;5092814;27;49598;-77
2023/01/03 08:18:33;;;;;;;;;12.50;10.75;;;;;8.14;100.00;102573.00;5092195;27;50621;-76
2023/01/03 08:20:58;;;;;;;;;9.25;8.75;;;;;7.83;100.00;102511.84;5092702;27;49822;-78
2023/01/03 08:23:24;;;;;;;;;10.25;9.00;;;;;8.81;100.00;102675.56;5092530;27;49959;-76
2023/01/03 08:25:50;;;;;;;;;6.00;6.00;;;;;7.99;100.00;102567.75;5092500;27;49689;-77
2023/01/03 08:28:15;;;;;;;;;8.00;6.50;;;;;8.19;100.00;102576.78;5092203;27;50825;-77
2023/01/03 08:30:47;;;;;;;;;6.25;6.25;;;;;8.36;100.00;102587.38;5092210;27;49656;-76
2023/01/03 08:33:15;;;;;;;;;13.50;7.75;;;;;8.22;100.00;102578.72;5092315;27;50175;-75
2023/01/03 08:35:47;;;;;;;;;10.75;8.75;;;;;9.29;100.00;102721.16;5092733;27;49963;-76
2023/01/03 08:38:17;;;;;;;;;7.00;6.00;;;;;8.82;100.00;102632.88;5092090;27;50678;-76
2023/01/03 08:40:45;;;;;;;;;7.00;7.00;;;;;8.67;100.00;102590.06;5092186;27;49727;-76
2023/01/03 08:43:12;;;;;;;;;7.25;6.50;;;;;9.48;100.00;102728.34;5092150;27;49708;-77
2023/01/03 08:45:38;;;;;;;;;9.00;8.25;;;;;8.23;100.00;102508.16;5092419;27;50680;-77
2023/01/03 08:48:05;;;;;;;;;8.00;8.00;;;;;8.63;100.00;102588.09;5091781;27;49895;-77
2023/01/03 08:50:30;;;;;;;;;4.00;4.00;;;;;8.41;100.00;102547.59;5092020;27;50027;-77
2023/01/03 08:52:56;;;;;;;;;7.25;7.25;;;;;8.32;100.00;102515.63;5091976;27;49776;-77
2023/01/03 08:55:22;;;;;;;;;10.75;7.25;;;;;9.63;100.00;102723.94;5089675;27;49705;-78
2023/01/03 08:57:47;;;;;;;;;6.75;6.75;;;;;9.41;100.00;102682.50;5091851;27;50170;-76
2023/01/03 09:00:13;;;;;;;;;10.50;9.00;;;;;8.93;100.00;102626.50;5091858;27;49604;-78
2023/01/03 09:02:39;;;;;;;;;6.50;6.50;;;;;8.65;100.00;102571.66;5091634;27;49803;-77
2023/01/03 09:05:05;;;;;;;;;6.00;2.50;;;;;8.65;100.00;102576.00;5091869;27;49803;-77
2023/01/03 09:07:30;;;;;;;;;6.00;6.00;;;;;9.14;100.00;102658.25;5091698;27;50056;-77
2023/01/03 09:09:55;;;;;;;;;6.00;6.00;;;;;9.57;100.00;102689.53;5091562;27;50010;-76
2023/01/03 09:12:21;;;;;;;;;8.50;7.25;;;;;8.51;100.00;102510.69;5091730;27;49866;-77
2023/01/03 09:14:46;;;;;;;;;9.00;7.25;;;;;9.76;100.00;102742.19;5091414;27;53275;-77
2023/01/03 09:17:11;;;;;;;;;7.00;7.00;;;;;9.16;100.00;102633.03;5091309;27;49880;-77
2023/01/03 09:19:37;;;;;;;;;7.25;5.25;;;;;9.77;100.00;102702.00;5072364;27;49883;-77
2023/01/03 09:22:02;;;;;;;;;8.00;5.50;;;;;9.82;100.00;102699.63;5091322;27;50095;-76
2023/01/03 09:24:27;;;;;;;;;8.75;8.75;;;;;10.07;100.00;102743.84;5091560;27;49684;-78
2023/01/03 09:26:53;;;;;;;;;7.25;6.75;;;;;9.27;100.00;102605.75;5101691;27;50745;-77
2023/01/03 09:29:18;;;;;;;;;9.25;9.25;;;;;8.90;100.00;102518.97;5106378;27;49865;-77
2023/01/03 09:31:43;;;;;;;;;8.50;8.50;;;;;9.92;100.00;102704.56;5108773;27;49772;-77
2023/01/03 09:34:09;;;;;;;;;8.75;7.50;;;;;8.95;100.00;102519.19;5101326;27;49984;-76
2023/01/03 09:36:37;;;;;;;;;8.00;7.00;;;;;10.36;100.00;102741.09;5102855;27;50870;-77
2023/01/03 09:39:03;;;;;;;;;7.25;7.25;;;;;9.58;100.00;102623.16;5092612;27;49936;-77
2023/01/03 09:41:28;;;;;;;;;7.75;7.50;;;;;10.28;100.00;102724.03;5093077;27;49811;-76
2023/01/03 09:44:13;;;;;;;;;8.75;7.50;;;;;9.98;100.00;102676.03;5094764;27;49772;-77
2023/01/03 09:46:38;;;;;;;;;4.00;3.75;;;;;10.30;100.00;102693.50;5090864;27;49846;-77
2023/01/03 09:49:06;;;;;;;;;8.25;7.50;;;;;10.56;100.00;102726.38;5094110;27;49955;-77
2023/01/03 10:03:43;;;;;;;;;6.75;6.75;;;;;11.01;100.00;102743.63;5110670;27;49934;-76
2023/01/03 10:06:39;;;;;;;;;6.50;4.25;;;;;9.80;100.00;102538.66;5101431;27;49963;-76
2023/01/03 10:09:21;;;;;;;;;5.50;4.00;;;;;11.09;100.00;102743.97;5090886;27;49823;-76
2023/01/03 10:12:02;;;;;;;;;7.25;4.75;;;;;10.34;100.00;102627.25;5085888;27;49767;-77
2023/01/03 10:14:30;;;;;;;;;5.00;4.75;;;;;11.10;100.00;102759.84;5090704;27;49688;-77
2023/01/03 10:17:01;;;;;;;;;7.25;3.75;;;;;11.16;100.00;102765.41;5090771;27;50066;-76
2023/01/03 10:19:27;;;;;;;;;3.25;3.25;;;;;11.21;100.00;102768.28;5108259;27;49940;-77
2023/01/03 10:22:17;;;;;;;;;5.00;3.25;;;;;11.24;100.00;102759.63;5112552;27;49699;-77
2023/01/03 10:24:45;;;;;;;;;4.75;3.00;;;;;11.31;100.00;102754.75;5092705;27;49665;-76
2023/01/03 10:27:20;;;;;;;;;4.50;4.25;;;;;11.28;100.00;102741.44;5104282;27;49582;-77
2023/01/03 10:29:49;;;;;;;;;8.00;4.50;;;;;11.35;100.00;102758.44;5110265;27;50321;-77
2023/01/03 10:32:32;;;;;;;;;5.25;4.00;;;;;11.51;100.00;102760.09;5110320;27;49849;-77
2023/01/03 10:35:14;;;;;;;;;9.50;7.50;;;;;11.32;100.00;102710.97;5103271;27;49616;-74
2023/01/03 10:37:40;;;;;;;;;7.50;5.25;;;;;11.71;100.00;102781.28;5108777;27;50288;-75
2023/01/03 10:40:06;;;;;;;;;8.00;6.25;;;;;11.78;100.00;102750.00;5101402;27;50364;-73
2023/01/03 10:42:35;;;;;;;;;9.00;8.25;;;;;10.42;100.00;102538.34;5094073;27;49954;-75
2023/01/03 10:45:03;;;;;;;;;4.75;3.25;;;;;11.03;100.00;102643.81;5094078;27;49616;-74
2023/01/03 10:47:29;;;;;;;;;8.50;7.25;;;;;10.26;100.00;102513.06;5093504;27;49988;-75
2023/01/03 10:50:03;;;;;;;;;6.25;6.25;;;;;11.45;100.00;102718.59;5093422;27;50899;-74
2023/01/03 10:52:36;;;;;;;;;6.25;4.00;;;;;11.63;100.00;102743.16;5093901;27;49827;-74
2023/01/03 10:55:11;;;;;;;;;4.25;4.00;;;;;11.15;100.00;102658.44;5094016;27;49912;-71
2023/01/03 10:57:47;;;;;;;;;6.50;5.50;;;;;11.72;100.00;102746.25;5107392;27;49827;-74
2023/01/03 11:00:36;;;;;;;;;4.75;3.75;;;;;11.81;100.00;102752.81;5107937;27;50941;-74
2023/01/03 11:03:08;;;;;;;;;5.00;4.00;;;;;11.88;100.00;102742.66;5113167;27;50027;-74
2023/01/03 11:05:35;;;;;;;;;7.50;4.25;;;;;10.83;100.00;102561.41;5113286;27;49747;-74
2023/01/03 11:08:03;;;;;;;;;2.75;2.50;;;;;11.86;100.00;102738.13;5113438;27;50036;-74
2023/01/03 11:10:37;;;;;;;;;4.00;3.00;;;;;11.21;100.00;102622.78;5112949;27;50893;-75
2023/01/03 11:13:27;;;;;;;;;3.75;3.00;;;;;11.63;100.00;102695.81;5113166;27;50221;-74
2023/01/03 11:15:55;;;;;;;;;4.00;4.00;;;;;11.65;100.00;102696.78;5113373;27;49921;-74
2023/01/03 11:18:22;;;;;;;;;5.75;5.00;;;;;11.14;100.00;102590.94;5113202;27;49709;-74
2023/01/03 11:21:06;;;;;;;;;5.75;4.75;;;;;12.14;100.00;102735.94;5113102;27;50012;-75
2023/01/03 11:23:37;;;;;;;;;4.00;3.75;;;;;12.26;100.00;102735.63;5112982;27;49692;-74
2023/01/03 11:26:32;;;;;;;;;8.25;5.00;;;;;12.36;100.00;102743.09;5112800;27;50097;-75
2023/01/03 11:29:15;;;;;;;;;3.75;3.75;;;;;12.44;100.00;102730.25;5113198;27;50013;-75
